Time;durP1;ratioP1;P1;durP2;ratioP2;P2;SDS_P1;SDS_P2;PMS_P1;PMS_P2;Temp;Humidity;BMP_temperature;BMP_pressure;BME280_temperature;BME280_humidity;BME280_pressure;Samples;Min_cycle;Max_cycle;Signal;HPM_P1;HPM_P2
2020/12/23 00:00:14;;;;;;;3.83;2.20;;;16.90;58.60;;;;;;4956145;28;20050;-80
2020/12/23 00:02:43;;;;;;;5.50;2.00;;;16.90;58.60;;;;;;4957331;28;20124;-80
2020/12/23 00:05:17;;;;;;;4.13;2.20;;;16.90;58.60;;;;;;4990432;28;20069;-80
2020/12/23 00:07:43;;;;;;;3.28;2.08;;;16.90;58.60;;;;;;4964314;28;20833;-81
2020/12/23 00:10:09;;;;;;;3.13;2.00;;;16.90;58.60;;;;;;4971180;28;20047;-80
2020/12/23 00:12:35;;;;;;;2.70;2.03;;;16.90;58.60;;;;;;4970915;28;20057;-80
2020/12/23 00:15:01;;;;;;;3.05;1.80;;;16.90;58.60;;;;;;4986156;28;20054;-80
2020/12/23 00:17:26;;;;;;;4.43;1.95;;;16.90;58.60;;;;;;4977914;28;20585;-80
2020/12/23 00:19:52;;;;;;;1.95;1.75;;;16.90;58.50;;;;;;4972180;28;20077;-80
2020/12/23 00:22:18;;;;;;;3.08;2.10;;;16.90;58.50;;;;;;4960596;28;20118;-81
2020/12/23 00:24:43;;;;;;;3.72;2.20;;;16.90;58.50;;;;;;4972842;28;20482;-80
2020/12/23 00:27:10;;;;;;;2.00;1.73;;;16.90;58.50;;;;;;4966762;28;20069;-80
2020/12/23 00:29:36;;;;;;;1.98;1.67;;;16.90;58.50;;;;;;4978241;28;20567;-81
2020/12/23 00:32:02;;;;;;;2.83;1.75;;;16.90;58.50;;;;;;4988847;28;20057;-80
2020/12/23 00:34:28;;;;;;;3.05;1.90;;;16.90;58.50;;;;;;4969809;28;20042;-81
2020/12/23 00:36:57;;;;;;;3.53;2.03;;;16.90;58.50;;;;;;4978322;28;20525;-81
2020/12/23 00:39:23;;;;;;;6.38;2.10;;;16.90;58.50;;;;;;4973057;28;20482;-82
2020/12/23 00:41:49;;;;;;;3.60;1.50;;;16.90;58.50;;;;;;4974429;28;20377;-82
2020/12/23 00:44:15;;;;;;;3.28;1.90;;;16.90;58.50;;;;;;4939941;28;20038;-82
2020/12/23 00:46:41;;;;;;;4.05;1.88;;;16.90;58.50;;;;;;4987160;28;20054;-84
2020/12/23 00:49:08;;;;;;;2.83;1.73;;;16.80;58.40;;;;;;4958888;28;20038;-82
2020/12/23 00:51:34;;;;;;;4.90;2.00;;;16.90;58.50;;;;;;4980166;28;20129;-82
2020/12/23 00:54:02;;;;;;;2.25;1.70;;;16.90;58.50;;;;;;4940137;28;20078;-81
2020/12/23 00:56:28;;;;;;;3.65;1.77;;;17.00;58.50;;;;;;4939002;28;20050;-80
2020/12/23 00:58:54;;;;;;;3.00;1.75;;;16.90;58.50;;;;;;4971726;28;20477;-81
2020/12/23 01:01:19;;;;;;;5.50;1.88;;;16.90;58.40;;;;;;4980398;28;20086;-81
2020/12/23 01:03:45;;;;;;;3.25;1.80;;;16.90;58.40;;;;;;4979269;28;20038;-81
2020/12/23 01:06:11;;;;;;;2.40;1.60;;;16.90;58.40;;;;;;4971636;28;20038;-80
2020/12/23 01:08:37;;;;;;;3.85;1.90;;;16.90;58.40;;;;;;4970968;28;20050;-81
2020/12/23 01:11:06;;;;;;;3.40;1.73;;;16.80;59.00;;;;;;4978024;28;20125;-81
2020/12/23 01:13:33;;;;;;;2.55;1.60;;;16.80;58.40;;;;;;4984985;28;20069;-81
2020/12/23 01:15:59;;;;;;;2.85;2.05;;;16.90;58.40;;;;;;4965180;28;20454;-81
2020/12/23 01:18:25;;;;;;;2.13;1.60;;;16.90;58.50;;;;;;4987101;28;20042;-81
2020/12/23 01:20:51;;;;;;;2.08;1.70;;;16.90;58.50;;;;;;4957373;28;20042;-80
2020/12/23 01:23:16;;;;;;;2.78;1.80;;;16.90;58.40;;;;;;4954172;28;20100;-81
2020/12/23 01:25:42;;;;;;;3.58;1.73;;;16.90;58.40;;;;;;4973448;28;20485;-81
2020/12/23 01:28:08;;;;;;;2.45;1.63;;;16.90;58.40;;;;;;4983230;28;20039;-81
2020/12/23 01:30:33;;;;;;;2.15;1.60;;;16.90;58.50;;;;;;4966075;28;20043;-81
2020/12/23 01:32:59;;;;;;;2.45;1.90;;;16.90;58.40;;;;;;4976698;28;20082;-81
2020/12/23 01:35:25;;;;;;;2.53;1.80;;;16.80;58.30;;;;;;4968238;28;20386;-81
2020/12/23 01:37:50;;;;;;;1.50;1.40;;;16.90;58.40;;;;;;4954623;28;20054;-81
2020/12/23 01:40:16;;;;;;;1.67;1.58;;;16.90;58.40;;;;;;4979917;28;20060;-81
2020/12/23 01:42:45;;;;;;;2.42;1.50;;;16.90;58.40;;;;;;4968002;28;20042;-81
2020/12/23 01:45:11;;;;;;;3.97;1.60;;;16.90;58.40;;;;;;4998162;28;20101;-82
2020/12/23 01:47:36;;;;;;;3.50;1.48;;;16.90;58.40;;;;;;4971148;28;20075;-82
2020/12/23 01:50:02;;;;;;;1.63;1.30;;;16.90;58.40;;;;;;4970042;28;20125;-82
2020/12/23 01:52:28;;;;;;;1.92;1.45;;;16.80;58.30;;;;;;4970055;28;20070;-82
2020/12/23 01:54:54;;;;;;;1.95;1.50;;;16.90;58.40;;;;;;4970208;28;20117;-81
2020/12/23 01:57:20;;;;;;;3.35;1.67;;;16.90;58.40;;;;;;4966512;28;20042;-82
2020/12/23 01:59:47;;;;;;;2.10;1.50;;;16.90;58.40;;;;;;4971461;28;20054;-82
2020/12/23 02:02:35;;;;;;;1.70;1.60;;;16.90;58.40;;;;;;4990611;28;20530;-82
2020/12/23 02:05:01;;;;;;;1.98;1.73;;;16.80;58.30;;;;;;4965527;28;20198;-81
2020/12/23 02:07:27;;;;;;;1.95;1.50;;;16.80;58.30;;;;;;4954759;28;20042;-81
2020/12/23 02:09:54;;;;;;;2.33;1.63;;;16.80;58.30;;;;;;4973922;28;20402;-81
2020/12/23 02:12:20;;;;;;;1.60;1.50;;;16.80;58.40;;;;;;4984351;28;20042;-81
2020/12/23 02:14:47;;;;;;;2.05;1.65;;;16.80;58.30;;;;;;4978199;28;20467;-81
2020/12/23 02:17:13;;;;;;;1.90;1.50;;;16.80;58.30;;;;;;4973435;28;20046;-81
2020/12/23 02:19:49;;;;;;;2.35;1.73;;;16.80;58.40;;;;;;4970609;28;20520;-81
2020/12/23 02:22:36;;;;;;;1.65;1.50;;;16.80;58.40;;;;;;4971513;28;20046;-81
2020/12/23 02:25:01;;;;;;;2.08;1.70;;;16.80;58.40;;;;;;4991860;28;20046;-81
2020/12/23 02:27:27;;;;;;;2.42;1.70;;;16.80;58.40;;;;;;4973074;28;20046;-81
2020/12/23 02:29:55;;;;;;;1.95;1.60;;;16.80;58.40;;;;;;4976175;28;20081;-81
2020/12/23 02:32:21;;;;;;;2.45;1.90;;;16.80;58.30;;;;;;4968209;28;20577;-81
2020/12/23 02:34:47;;;;;;;1.92;1.60;;;16.80;58.30;;;;;;4982125;28;20118;-81
2020/12/23 02:37:13;;;;;;;1.90;1.50;;;16.80;58.30;;;;;;4987528;28;20042;-81
2020/12/23 02:39:39;;;;;;;2.85;1.65;;;16.80;58.40;;;;;;4980778;28;20034;-81
2020/12/23 02:42:05;;;;;;;2.03;1.70;;;16.80;58.30;;;;;;4956779;28;20038;-81
2020/12/23 02:44:31;;;;;;;3.17;1.77;;;16.80;58.30;;;;;;4958223;28;20042;-81
2020/12/23 02:46:57;;;;;;;2.33;1.73;;;16.80;58.40;;;;;;4976873;28;20046;-81
2020/12/23 02:49:24;;;;;;;2.25;1.80;;;16.80;58.30;;;;;;4973805;28;20046;-82
2020/12/23 02:51:50;;;;;;;2.70;1.77;;;16.80;58.40;;;;;;4972480;28;20049;-81
2020/12/23 02:54:15;;;;;;;2.30;1.65;;;16.80;58.40;;;;;;4962602;28;20054;-81
2020/12/23 02:56:41;;;;;;;1.73;1.60;;;16.80;58.40;;;;;;4993546;28;20066;-81
2020/12/23 02:59:07;;;;;;;3.00;1.63;;;16.80;58.40;;;;;;4971370;28;20073;-82
2020/12/23 03:01:34;;;;;;;1.88;1.60;;;16.80;58.40;;;;;;4968509;28;20117;-81
2020/12/23 03:04:00;;;;;;;1.73;1.60;;;16.80;58.40;;;;;;4971438;28;20113;-81
2020/12/23 03:06:25;;;;;;;1.63;1.42;;;16.80;58.40;;;;;;4970801;28;20035;-81
2020/12/23 03:08:51;;;;;;;3.33;1.80;;;16.80;58.40;;;;;;4971930;28;20126;-81
2020/12/23 03:11:16;;;;;;;3.60;1.75;;;16.70;58.40;;;;;;4979680;28;20069;-81
2020/12/23 03:13:42;;;;;;;2.95;1.80;;;16.70;58.40;;;;;;4970831;28;20117;-81
2020/12/23 03:16:08;;;;;;;2.33;1.77;;;16.70;58.40;;;;;;4970899;28;20058;-81
2020/12/23 03:18:34;;;;;;;1.88;1.45;;;16.70;58.40;;;;;;4983008;28;20485;-81
2020/12/23 03:20:59;;;;;;;4.57;1.90;;;16.70;58.40;;;;;;4987406;28;20042;-82
2020/12/23 03:23:25;;;;;;;2.50;1.80;;;16.70;58.40;;;;;;4958594;28;20051;-81
2020/12/23 03:25:51;;;;;;;2.35;1.70;;;16.70;58.40;;;;;;4967731;28;20053;-81
2020/12/23 03:28:16;;;;;;;1.98;1.77;;;16.70;58.30;;;;;;4988083;28;20444;-82
2020/12/23 03:30:42;;;;;;;1.83;1.55;;;16.70;58.40;;;;;;4971804;28;20077;-82
2020/12/23 03:33:08;;;;;;;2.00;1.80;;;16.70;58.40;;;;;;4973287;28;20046;-82
2020/12/23 03:35:33;;;;;;;2.05;1.80;;;16.80;58.40;;;;;;4971318;28;20092;-81
2020/12/23 03:37:59;;;;;;;2.22;1.70;;;16.80;58.40;;;;;;4974053;28;20129;-82
2020/12/23 03:40:25;;;;;;;2.25;1.60;;;16.70;58.30;;;;;;4974494;28;20394;-81
2020/12/23 03:42:50;;;;;;;2.53;1.73;;;16.70;58.40;;;;;;4986333;28;20042;-80
2020/12/23 03:45:16;;;;;;;1.60;1.48;;;16.70;58.40;;;;;;4967105;28;20082;-81
2020/12/23 03:47:42;;;;;;;5.45;1.75;;;16.70;58.40;;;;;;4977504;28;20038;-81
2020/12/23 03:50:07;;;;;;;2.10;1.70;;;16.70;58.40;;;;;;4972891;28;20478;-81
2020/12/23 03:52:33;;;;;;;1.75;1.60;;;16.70;58.30;;;;;;4964551;28;20076;-81
2020/12/23 03:54:59;;;;;;;1.75;1.60;;;16.70;58.30;;;;;;4974016;28;20050;-81
2020/12/23 03:57:24;;;;;;;1.98;1.50;;;16.70;58.30;;;;;;4970760;28;20395;-81
2020/12/23 03:59:50;;;;;;;1.92;1.52;;;16.70;58.30;;;;;;4972174;28;20379;-82
2020/12/23 04:02:15;;;;;;;1.52;1.42;;;16.70;58.30;;;;;;4961135;28;20046;-82
2020/12/23 04:04:41;;;;;;;2.95;1.80;;;16.70;58.30;;;;;;4975543;28;20051;-81
2020/12/23 04:07:07;;;;;;;1.60;1.40;;;16.70;58.30;;;;;;4969203;28;20426;-81
2020/12/23 04:09:32;;;;;;;2.92;1.75;;;16.70;58.30;;;;;;4972571;28;20392;-81
2020/12/23 04:11:58;;;;;;;2.13;1.27;;;16.70;58.30;;;;;;4978078;28;20541;-81
2020/12/23 04:14:24;;;;;;;2.25;1.60;;;16.70;58.30;;;;;;4987934;28;20382;-81
2020/12/23 04:16:50;;;;;;;2.85;1.70;;;16.80;58.40;;;;;;4987874;28;20050;-81
2020/12/23 04:19:16;;;;;;;2.35;1.67;;;16.70;58.90;;;;;;4972589;28;20061;-81
2020/12/23 04:21:41;;;;;;;3.10;1.50;;;16.70;58.30;;;;;;4974052;28;20046;-81
2020/12/23 04:24:07;;;;;;;2.58;1.80;;;16.70;58.30;;;;;;4980263;28;20046;-81
2020/12/23 04:26:32;;;;;;;1.60;1.50;;;16.70;58.30;;;;;;4957271;28;20491;-81
2020/12/23 04:28:58;;;;;;;2.72;1.67;;;16.70;58.30;;;;;;4965569;28;20438;-81
2020/12/23 04:31:24;;;;;;;1.98;1.58;;;16.70;58.30;;;;;;4963053;28;20113;-82
2020/12/23 04:33:49;;;;;;;1.80;1.50;;;16.70;58.30;;;;;;4972441;28;20572;-81
2020/12/23 04:36:15;;;;;;;1.48;1.30;;;16.70;58.30;;;;;;4977035;28;20077;-81
2020/12/23 04:38:41;;;;;;;1.65;1.52;;;16.70;58.30;;;;;;4982487;28;20038;-82
2020/12/23 04:41:07;;;;;;;1.73;1.50;;;16.70;58.30;;;;;;4987310;28;20041;-82
2020/12/23 04:43:33;;;;;;;1.73;1.45;;;16.70;58.30;;;;;;4977409;28;20062;-82
2020/12/23 04:45:58;;;;;;;1.77;1.42;;;16.70;58.30;;;;;;4972515;28;20043;-82
2020/12/23 04:48:25;;;;;;;1.75;1.52;;;16.70;58.30;;;;;;4975651;28;20049;-82
2020/12/23 04:50:54;;;;;;;1.80;1.52;;;16.70;58.30;;;;;;4989279;28;20042;-82
2020/12/23 04:53:20;;;;;;;1.60;1.27;;;16.70;58.30;;;;;;4987069;28;20050;-81
2020/12/23 04:55:45;;;;;;;2.40;1.30;;;16.70;58.30;;;;;;4969381;28;20038;-81
2020/12/23 04:58:11;;;;;;;2.25;1.40;;;16.70;58.40;;;;;;4971881;28;20043;-81
2020/12/23 05:00:37;;;;;;;1.90;1.40;;;16.70;58.30;;;;;;4940182;28;20146;-81
2020/12/23 05:03:02;;;;;;;1.73;1.35;;;16.70;58.30;;;;;;4987214;28;20073;-81
2020/12/23 05:05:28;;;;;;;1.52;1.35;;;16.60;58.80;;;;;;4988221;28;20738;-81
2020/12/23 05:07:55;;;;;;;1.75;1.40;;;16.70;58.30;;;;;;4990684;28;20426;-81
2020/12/23 05:10:20;;;;;;;1.58;1.40;;;16.70;58.30;;;;;;4961150;28;20536;-82
2020/12/23 05:12:46;;;;;;;1.65;1.38;;;16.70;58.30;;;;;;4980647;28;20038;-82
2020/12/23 05:15:12;;;;;;;1.48;1.20;;;16.70;58.20;;;;;;4965637;28;20383;-81
2020/12/23 05:17:45;;;;;;;1.50;1.40;;;16.70;58.20;;;;;;4967791;28;20038;-82
2020/12/23 05:20:11;;;;;;;1.67;1.40;;;16.70;58.30;;;;;;4961800;28;20098;-82
2020/12/23 05:22:38;;;;;;;1.50;1.40;;;16.70;58.30;;;;;;4964965;28;20082;-82
2020/12/23 05:25:03;;;;;;;1.75;1.40;;;16.70;58.30;;;;;;4972399;28;20119;-81
2020/12/23 05:27:32;;;;;;;1.45;1.20;;;16.70;58.30;;;;;;4994352;28;20042;-81
2020/12/23 05:29:57;;;;;;;1.52;1.15;;;16.70;58.30;;;;;;4969626;28;20051;-82
2020/12/23 05:32:23;;;;;;;1.58;1.20;;;16.70;58.30;;;;;;4969792;28;20572;-82
2020/12/23 05:34:51;;;;;;;1.30;1.20;;;16.70;58.90;;;;;;4979041;28;20041;-82
2020/12/23 05:37:18;;;;;;;1.58;1.33;;;16.60;58.20;;;;;;4977546;28;20038;-82
2020/12/23 05:39:44;;;;;;;1.35;1.23;;;16.70;58.30;;;;;;4972794;28;20126;-82
2020/12/23 05:42:09;;;;;;;1.80;1.40;;;16.70;58.30;;;;;;4986384;28;20113;-82
2020/12/23 05:44:36;;;;;;;1.25;1.15;;;16.70;58.20;;;;;;4983260;28;20039;-83
2020/12/23 05:47:02;;;;;;;1.48;1.27;;;16.70;58.20;;;;;;4987536;28;20051;-82
2020/12/23 05:49:27;;;;;;;1.30;1.20;;;16.70;58.90;;;;;;4973260;28;20047;-79
2020/12/23 05:51:53;;;;;;;1.42;1.33;;;16.70;58.30;;;;;;4970953;28;20062;-82
2020/12/23 05:54:19;;;;;;;1.35;1.25;;;16.70;58.30;;;;;;4970037;28;20481;-82
2020/12/23 05:56:45;;;;;;;1.52;1.20;;;16.70;58.30;;;;;;4970373;28;20077;-81
2020/12/23 05:59:11;;;;;;;1.95;1.38;;;16.70;58.30;;;;;;4989607;28;20074;-80
2020/12/23 06:01:38;;;;;;;1.48;1.23;;;16.60;58.30;;;;;;4975777;28;20041;-82
2020/12/23 06:04:08;;;;;;;1.33;1.13;;;16.70;58.30;;;;;;4989540;28;20435;-82
2020/12/23 06:06:34;;;;;;;1.42;1.13;;;16.70;58.40;;;;;;4976345;28;20042;-81
2020/12/23 06:09:04;;;;;;;1.42;1.20;;;16.70;58.40;;;;;;4958968;28;20046;-81
2020/12/23 06:11:33;;;;;;;1.45;1.30;;;16.70;58.40;;;;;;4990031;28;20050;-81
2020/12/23 06:14:34;;;;;;;1.50;1.40;;;16.60;58.90;;;;;;4983642;28;20109;-82
2020/12/23 06:17:03;;;;;;;1.40;1.30;;;16.60;58.30;;;;;;4983374;28;20504;-84
2020/12/23 06:19:37;;;;;;;1.85;1.48;;;16.70;58.40;;;;;;4992935;28;20038;-82
2020/12/23 06:22:09;;;;;;;2.95;1.25;;;16.60;58.40;;;;;;4973586;28;20420;-83
2020/12/23 06:24:38;;;;;;;2.63;1.40;;;16.70;58.40;;;;;;4956289;28;20050;-84
2020/12/23 06:27:08;;;;;;;2.38;1.20;;;16.70;58.40;;;;;;4982344;28;20038;-81
2020/12/23 06:29:38;;;;;;;1.90;1.40;;;16.70;58.40;;;;;;4975982;28;20486;-83
2020/12/23 06:32:08;;;;;;;2.30;1.48;;;16.70;58.40;;;;;;4952570;28;20078;-83
2020/12/23 06:34:39;;;;;;;6.75;1.40;;;16.70;58.40;;;;;;4990336;28;20054;-83
2020/12/23 06:37:24;;;;;;;2.30;1.40;;;16.70;58.40;;;;;;4960135;28;20053;-83
2020/12/23 06:39:50;;;;;;;2.22;1.67;;;16.70;58.50;;;;;;4960204;28;20136;-82
2020/12/23 06:42:16;;;;;;;1.92;1.20;;;17.00;57.80;;;;;;4959644;28;20051;-82
2020/12/23 06:44:42;;;;;;;2.13;1.60;;;17.60;56.20;;;;;;4978873;28;20393;-82
2020/12/23 06:47:11;;;;;;;2.25;1.35;;;18.60;53.50;;;;;;4993994;28;20125;-83
2020/12/23 06:49:45;;;;;;;1.83;1.30;;;19.80;50.30;;;;;;4992103;28;20106;-82
2020/12/23 06:52:29;;;;;;;1.30;1.20;;;20.40;48.30;;;;;;4975723;28;20086;-82
2020/12/23 06:55:07;;;;;;;1.55;1.23;;;21.00;47.10;;;;;;5004827;28;20053;-82
2020/12/23 06:57:36;;;;;;;4.25;1.20;;;21.30;46.00;;;;;;4981013;28;20057;-82
2020/12/23 07:00:14;;;;;;;2.78;1.10;;;21.70;45.00;;;;;;4987304;28;20038;-82
2020/12/23 07:02:47;;;;;;;3.55;1.23;;;22.20;44.10;;;;;;4978094;28;20039;-82
2020/12/23 07:05:14;;;;;;;2.00;1.30;;;22.70;42.80;;;;;;4978630;28;20062;-80
2020/12/23 07:07:41;;;;;;;3.08;1.40;;;23.10;42.00;;;;;;4975116;28;20574;-82
2020/12/23 07:10:10;;;;;;;2.58;1.40;;;23.20;41.60;;;;;;4990431;28;20042;-82
2020/12/23 07:12:38;;;;;;;3.20;1.50;;;23.20;41.60;;;;;;4983311;28;20042;-82
2020/12/23 07:15:12;;;;;;;2.03;1.48;;;23.10;41.80;;;;;;4968554;28;20512;-81
2020/12/23 07:17:39;;;;;;;1.70;1.50;;;22.90;42.20;;;;;;4959486;28;20086;-80
2020/12/23 07:20:05;;;;;;;1.85;1.40;;;22.80;42.10;;;;;;4973625;28;20038;-81
2020/12/23 07:22:31;;;;;;;2.58;1.42;;;22.90;42.40;;;;;;4974366;28;20034;-82
2020/12/23 07:24:57;;;;;;;1.65;1.20;;;23.10;41.80;;;;;;4975340;28;20068;-81
2020/12/23 07:27:27;;;;;;;2.97;1.67;;;23.20;41.50;;;;;;4955681;28;20081;-82
2020/12/23 07:29:55;;;;;;;1.63;1.50;;;23.40;41.20;;;;;;4989463;28;20050;-82
2020/12/23 07:32:24;;;;;;;2.85;1.40;;;23.80;40.60;;;;;;4991267;28;20058;-81
2020/12/23 07:34:50;;;;;;;2.25;1.35;;;24.30;39.60;;;;;;4984003;28;20050;-79
2020/12/23 07:37:16;;;;;;;4.50;1.50;;;24.50;39.20;;;;;;4973924;28;20417;-79
2020/12/23 07:39:48;;;;;;;2.92;1.17;;;25.00;38.60;;;;;;4975724;28;20062;-77
2020/12/23 07:42:18;;;;;;;8.07;1.60;;;25.00;39.10;;;;;;4988409;28;20065;-78
2020/12/23 07:44:51;;;;;;;8.68;1.80;;;25.20;38.10;;;;;;4977625;28;20050;-80
2020/12/23 07:47:21;;;;;;;7.55;1.70;;;25.30;38.20;;;;;;4948386;28;20113;-80
2020/12/23 07:50:03;;;;;;;14.05;1.75;;;25.30;38.30;;;;;;4972990;28;20350;-82
2020/12/23 07:52:29;;;;;;;8.70;1.80;;;25.20;38.40;;;;;;4983006;28;20050;-79
2020/12/23 07:54:55;;;;;;;11.35;2.05;;;25.10;38.60;;;;;;4968257;28;20088;-77
2020/12/23 07:57:28;;;;;;;6.47;1.80;;;25.00;39.00;;;;;;4975501;28;20039;-78
2020/12/23 08:00:00;;;;;;;9.77;1.98;;;24.70;39.50;;;;;;4972649;28;20051;-80
2020/12/23 08:02:26;;;;;;;8.05;2.25;;;24.40;39.90;;;;;;4982836;28;20109;-78
2020/12/23 08:04:52;;;;;;;6.32;2.00;;;24.20;40.60;;;;;;4976830;28;20043;-80
2020/12/23 08:07:24;;;;;;;11.38;2.55;;;23.90;41.20;;;;;;4975037;28;20901;-80
2020/12/23 08:09:50;;;;;;;6.45;2.25;;;23.50;41.80;;;;;;4965719;28;20055;-77
2020/12/23 08:12:17;;;;;;;8.18;2.28;;;23.30;42.40;;;;;;4980245;28;20109;-80
2020/12/23 08:14:43;;;;;;;11.90;2.53;;;23.10;42.80;;;;;;4981588;28;20038;-81
2020/12/23 08:17:08;;;;;;;7.57;2.03;;;22.80;43.30;;;;;;4977357;28;20456;-79
2020/12/23 08:19:34;;;;;;;5.03;2.03;;;22.60;43.80;;;;;;4985194;28;20097;-82
2020/12/23 08:22:10;;;;;;;13.57;3.15;;;22.40;44.20;;;;;;4973651;28;20111;-79
2020/12/23 08:24:36;;;;;;;7.53;2.13;;;22.10;44.90;;;;;;4987866;28;20038;-78
2020/12/23 08:27:02;;;;;;;10.90;2.60;;;21.80;45.50;;;;;;4982197;28;20101;-83
2020/12/23 08:29:28;;;;;;;7.80;2.30;;;21.60;46.10;;;;;;4967303;28;20109;-80
2020/12/23 08:31:54;;;;;;;5.72;2.10;;;21.30;46.50;;;;;;4962202;28;20405;-79
2020/12/23 08:34:20;;;;;;;7.97;2.25;;;21.20;47.00;;;;;;4976967;28;20402;-82
2020/12/23 08:36:52;;;;;;;9.88;2.95;;;21.00;47.40;;;;;;4957609;28;20046;-82
2020/12/23 08:39:24;;;;;;;8.75;1.90;;;20.80;47.80;;;;;;4956104;28;20045;-82
2020/12/23 08:41:50;;;;;;;10.50;2.22;;;20.70;48.30;;;;;;4987363;28;20397;-82
2020/12/23 08:44:22;;;;;;;5.10;1.92;;;20.50;48.80;;;;;;4992677;28;20092;-82
2020/12/23 08:46:48;;;;;;;10.77;2.10;;;20.40;49.20;;;;;;4994065;28;20141;-82
2020/12/23 08:49:15;;;;;;;6.90;1.90;;;20.30;49.60;;;;;;4982595;28;20118;-82
2020/12/23 08:51:40;;;;;;;7.60;2.30;;;20.10;50.00;;;;;;4987679;28;20509;-80
2020/12/23 08:54:15;;;;;;;7.10;1.98;;;20.00;50.10;;;;;;4973548;28;20038;-83
2020/12/23 08:56:48;;;;;;;5.82;1.98;;;20.00;50.30;;;;;;4965176;28;20051;-82
2020/12/23 08:59:14;;;;;;;5.03;1.70;;;19.80;50.50;;;;;;4973404;28;20055;-83
2020/12/23 09:01:40;;;;;;;4.72;1.70;;;19.90;50.70;;;;;;4993375;28;20116;-81
2020/12/23 09:04:10;;;;;;;7.70;1.83;;;19.90;51.40;;;;;;4988225;28;20034;-81
2020/12/23 09:06:36;;;;;;;7.65;1.92;;;19.90;50.80;;;;;;4964094;28;20073;-81
2020/12/23 09:09:08;;;;;;;7.88;1.65;;;19.90;50.90;;;;;;4979347;28;20159;-81
2020/12/23 09:11:42;;;;;;;2.47;1.70;;;19.80;50.90;;;;;;4963082;28;20094;-80
2020/12/23 09:14:27;;;;;;;6.70;1.80;;;19.90;50.90;;;;;;4960580;28;20082;-79
2020/12/23 09:16:59;;;;;;;3.80;1.63;;;19.90;50.80;;;;;;4967007;28;20039;-78
2020/12/23 09:19:44;;;;;;;7.32;2.10;;;19.90;50.90;;;;;;4981551;28;20055;-83
2020/12/23 09:22:12;;;;;;;4.55;1.67;;;19.80;51.00;;;;;;4985668;28;20066;-80
2020/12/23 09:24:38;;;;;;;8.10;1.83;;;19.80;51.20;;;;;;4971828;28;20417;-81
2020/12/23 09:27:21;;;;;;;3.72;1.88;;;19.70;51.30;;;;;;4981051;28;20053;-80
2020/12/23 09:29:47;;;;;;;6.22;1.77;;;19.50;51.70;;;;;;4976802;28;20042;-81
2020/12/23 09:32:12;;;;;;;4.70;1.63;;;19.50;52.00;;;;;;4972170;28;20070;-81
2020/12/23 09:34:39;;;;;;;5.15;1.70;;;19.40;52.20;;;;;;4972791;28;20051;-81
2020/12/23 09:37:06;;;;;;;4.50;1.80;;;19.40;52.40;;;;;;4988333;28;20066;-81
2020/12/23 09:39:34;;;;;;;4.93;1.60;;;19.30;52.60;;;;;;5004045;28;20041;-82
2020/12/23 09:42:07;;;;;;;4.35;1.85;;;19.20;52.80;;;;;;4959065;28;20044;-81
2020/12/23 09:44:33;;;;;;;2.75;1.60;;;19.20;53.00;;;;;;4975878;28;20504;-82
2020/12/23 09:46:59;;;;;;;5.70;1.83;;;19.10;53.20;;;;;;4991338;28;20034;-82
2020/12/23 09:49:26;;;;;;;5.07;1.55;;;19.10;53.40;;;;;;4957139;28;20589;-83
2020/12/23 09:51:52;;;;;;;5.28;1.67;;;19.00;53.40;;;;;;4969113;28;20054;-81
2020/12/23 09:54:17;;;;;;;4.93;1.92;;;19.00;53.60;;;;;;4976578;28;20110;-81
2020/12/23 09:56:51;;;;;;;3.75;1.70;;;19.00;53.60;;;;;;4972222;28;20505;-79
2020/12/23 09:59:20;;;;;;;7.53;1.58;;;18.90;53.70;;;;;;4984025;28;20042;-79
2020/12/23 10:01:46;;;;;;;5.50;1.67;;;18.90;53.90;;;;;;4975334;28;20050;-81
2020/12/23 10:04:12;;;;;;;4.38;1.40;;;18.90;54.00;;;;;;4963183;28;20041;-80
2020/12/23 10:06:38;;;;;;;3.10;1.52;;;18.80;54.10;;;;;;5006796;28;20489;-78
2020/12/23 10:09:05;;;;;;;5.80;1.50;;;18.80;54.10;;;;;;4957848;28;20047;-77
2020/12/23 10:11:30;;;;;;;4.80;1.45;;;18.80;54.20;;;;;;5001828;28;20027;-82
2020/12/23 10:13:56;;;;;;;4.05;1.30;;;18.80;54.30;;;;;;4991167;28;20041;-80
2020/12/23 10:16:23;;;;;;;5.13;1.52;;;18.80;54.30;;;;;;4971371;28;20419;-78
2020/12/23 10:18:48;;;;;;;3.92;1.52;;;18.80;54.30;;;;;;4971912;28;20469;-79
2020/12/23 10:21:14;;;;;;;3.05;1.70;;;18.80;54.30;;;;;;4978795;28;20043;-80
2020/12/23 10:23:40;;;;;;;5.75;1.65;;;18.80;54.40;;;;;;4963111;28;20114;-80
2020/12/23 10:26:06;;;;;;;2.72;1.38;;;18.70;54.40;;;;;;4991821;28;20068;-80
2020/12/23 10:28:32;;;;;;;8.20;1.60;;;18.80;54.40;;;;;;4991395;28;20054;-79
2020/12/23 10:30:58;;;;;;;3.25;1.38;;;18.80;55.00;;;;;;4975315;28;20038;-79
2020/12/23 10:33:23;;;;;;;3.42;1.38;;;18.80;54.50;;;;;;4975048;28;20054;-78
2020/12/23 10:35:49;;;;;;;3.20;1.33;;;18.80;54.50;;;;;;4981640;28;20464;-80
2020/12/23 10:38:15;;;;;;;5.95;1.65;;;18.80;54.60;;;;;;4986187;28;20041;-79
2020/12/23 10:40:40;;;;;;;5.68;1.58;;;18.70;54.60;;;;;;4972271;28;20483;-80
2020/12/23 10:43:06;;;;;;;4.45;1.50;;;18.70;54.70;;;;;;4975365;28;20050;-79
2020/12/23 10:45:32;;;;;;;3.03;1.30;;;18.70;54.80;;;;;;4991046;28;20031;-80
2020/12/23 10:47:57;;;;;;;6.78;1.50;;;18.70;54.80;;;;;;4985587;28;20034;-79
2020/12/23 10:50:23;;;;;;;11.30;1.38;;;18.70;54.80;;;;;;4978763;28;20046;-80
2020/12/23 10:52:49;;;;;;;3.55;1.50;;;18.70;54.80;;;;;;4994439;28;20049;-80
2020/12/23 10:55:14;;;;;;;4.18;1.60;;;18.60;54.90;;;;;;4994169;28;20478;-78
2020/12/23 10:57:40;;;;;;;4.20;1.25;;;18.60;55.00;;;;;;4992878;28;20114;-79
2020/12/23 11:00:06;;;;;;;3.80;1.40;;;18.60;55.10;;;;;;4980423;28;20496;-78
2020/12/23 11:02:31;;;;;;;5.10;1.30;;;18.60;55.10;;;;;;4977107;28;20493;-81
2020/12/23 11:04:57;;;;;;;2.33;1.40;;;18.60;55.30;;;;;;4974945;28;20035;-80
2020/12/23 11:07:23;;;;;;;5.00;1.60;;;18.60;55.30;;;;;;5001077;28;20474;-81
2020/12/23 11:09:48;;;;;;;2.75;1.38;;;18.50;55.30;;;;;;4978460;28;20391;-81
2020/12/23 11:12:14;;;;;;;4.65;1.52;;;18.50;55.50;;;;;;4978367;28;20053;-79
2020/12/23 11:14:40;;;;;;;4.28;1.73;;;18.50;55.50;;;;;;4978314;28;20045;-81
2020/12/23 11:17:06;;;;;;;3.95;1.58;;;18.40;55.60;;;;;;4992394;28;20470;-81
2020/12/23 11:19:31;;;;;;;5.35;1.35;;;18.40;55.70;;;;;;4993868;28;20054;-78
2020/12/23 11:21:57;;;;;;;2.67;1.60;;;18.40;55.80;;;;;;4994885;28;20553;-78
2020/12/23 11:24:23;;;;;;;2.40;1.50;;;18.30;55.80;;;;;;4991595;28;20042;-82
2020/12/23 11:26:49;;;;;;;2.58;1.40;;;18.30;55.90;;;;;;4985945;28;20031;-75
2020/12/23 11:29:14;;;;;;;4.45;1.60;;;18.30;56.00;;;;;;4971536;28;20069;-78
2020/12/23 11:31:40;;;;;;;4.88;1.40;;;18.30;56.10;;;;;;4993667;28;20493;-77
2020/12/23 11:34:06;;;;;;;3.22;1.40;;;18.20;56.20;;;;;;4975780;28;20105;-78
2020/12/23 11:36:32;;;;;;;3.20;1.80;;;18.20;56.20;;;;;;4959482;28;20473;-77
2020/12/23 11:38:59;;;;;;;3.13;1.60;;;18.20;56.40;;;;;;4979342;28;20418;-79
2020/12/23 11:41:25;;;;;;;7.32;1.67;;;18.20;56.40;;;;;;5004578;28;20085;-78
2020/12/23 11:43:51;;;;;;;3.42;1.70;;;18.20;56.50;;;;;;4977933;28;20039;-81
2020/12/23 11:46:16;;;;;;;10.02;1.60;;;18.10;56.60;;;;;;4973028;28;20031;-80
2020/12/23 11:48:42;;;;;;;5.40;1.63;;;18.10;56.60;;;;;;4957190;28;20069;-77
2020/12/23 11:51:08;;;;;;;3.45;1.65;;;18.10;57.30;;;;;;4965997;28;20074;-79
2020/12/23 11:53:34;;;;;;;3.55;1.50;;;18.10;56.70;;;;;;4974509;28;20042;-78
2020/12/23 11:56:00;;;;;;;2.88;1.58;;;18.10;56.90;;;;;;4976433;28;20057;-78
2020/12/23 11:58:26;;;;;;;5.65;2.10;;;18.10;56.90;;;;;;4977682;28;20482;-79
2020/12/23 12:00:51;;;;;;;2.00;1.33;;;18.00;56.90;;;;;;4976967;28;20489;-78
2020/12/23 12:03:17;;;;;;;5.85;1.40;;;18.00;56.90;;;;;;4991928;28;20122;-77
2020/12/23 12:05:43;;;;;;;6.22;1.65;;;18.00;57.00;;;;;;4961430;28;20061;-77
2020/12/23 12:08:09;;;;;;;2.28;1.20;;;18.00;57.10;;;;;;4959303;28;20390;-77
2020/12/23 12:10:35;;;;;;;2.38;1.40;;;18.00;57.10;;;;;;4983217;28;20169;-78
2020/12/23 12:13:01;;;;;;;3.50;1.55;;;18.00;57.20;;;;;;4995865;28;20049;-78
2020/12/23 12:15:27;;;;;;;4.95;1.67;;;18.00;57.20;;;;;;4970573;28;20517;-77
2020/12/23 12:17:53;;;;;;;8.70;1.50;;;18.00;57.20;;;;;;4982903;28;20059;-77
2020/12/23 12:20:19;;;;;;;6.93;1.55;;;18.00;57.40;;;;;;4997990;28;20073;-78
2020/12/23 12:22:45;;;;;;;5.63;1.70;;;18.00;57.70;;;;;;4972054;28;20058;-79
2020/12/23 12:25:16;;;;;;;4.47;1.70;;;18.00;58.10;;;;;;4957368;28;20156;-79
2020/12/23 12:27:42;;;;;;;5.38;1.60;;;18.00;58.50;;;;;;4933209;28;20057;-79
2020/12/23 12:30:07;;;;;;;3.05;1.63;;;17.90;58.70;;;;;;4985305;28;20819;-79
2020/12/23 12:32:33;;;;;;;2.72;1.40;;;17.90;59.00;;;;;;4981611;28;20054;-78
2020/12/23 12:34:59;;;;;;;7.18;1.75;;;17.90;59.30;;;;;;4959211;28;20158;-78
2020/12/23 12:37:26;;;;;;;5.07;1.67;;;17.90;59.60;;;;;;4958920;28;20805;-78
2020/12/23 12:39:52;;;;;;;2.03;1.40;;;17.90;59.90;;;;;;4982133;28;20057;-78
2020/12/23 12:42:17;;;;;;;4.63;1.55;;;17.90;60.00;;;;;;4985849;28;20046;-79
2020/12/23 12:44:43;;;;;;;5.82;1.50;;;17.80;60.20;;;;;;4975900;28;20051;-78